createdAt,value
2023-04-08T00:10:23.277Z,101229.16
2023-04-08T00:12:53.551Z,101230.31
2023-04-08T00:15:23.814Z,101233.69
2023-04-08T00:17:55.973Z,101233.25
2023-04-08T00:20:27.014Z,101232.44
2023-04-08T00:22:57.789Z,101239.88
2023-04-08T00:25:28.104Z,101246.41
2023-04-08T00:27:59.304Z,101257.59
2023-04-08T00:30:30.690Z,101260.38
2023-04-08T00:33:00.953Z,101256.66
2023-04-08T00:35:31.383Z,101268.53
2023-04-08T00:38:01.624Z,101279.59
2023-04-08T00:40:31.913Z,101293.94
2023-04-08T00:43:02.095Z,101292.31
2023-04-08T00:45:32.355Z,101293.94
2023-04-08T00:48:02.957Z,101308.28
2023-04-08T00:50:33.505Z,101309.28
2023-04-08T00:53:03.686Z,101315.63
2023-04-08T00:55:33.911Z,101316.75
2023-04-08T00:58:04.399Z,101319.19
2023-04-08T01:00:35.428Z,101317.44
2023-04-08T01:03:13.397Z,101328.50
2023-04-08T01:06:05.064Z,101338.13
2023-04-08T01:08:40.030Z,101341.38
2023-04-08T01:11:14.674Z,101349.50
2023-04-08T01:13:47.317Z,101361.06
2023-04-08T01:16:19.840Z,101364.34
2023-04-08T01:18:55.831Z,101366.47
2023-04-08T01:21:27.416Z,101372.00
2023-04-08T01:24:26.553Z,101382.13
2023-04-08T01:27:01.409Z,101396.13
2023-04-08T01:29:33.748Z,101391.72
2023-04-08T01:32:04.824Z,101394.22
2023-04-08T01:34:37.110Z,101380.03
2023-04-08T01:37:09.000Z,101376.13
2023-04-08T01:39:41.433Z,101392.16
2023-04-08T01:42:12.357Z,101382.47
2023-04-08T01:44:43.763Z,101387.09
2023-04-08T01:47:15.967Z,101379.59
2023-04-08T01:49:48.234Z,101385.97
2023-04-08T01:52:21.088Z,101389.38
2023-04-08T01:54:51.622Z,101398.19
2023-04-08T01:57:30.983Z,101390.69
2023-04-08T02:00:08.390Z,101393.78
2023-04-08T02:02:52.517Z,101402.88
2023-04-08T02:05:23.525Z,101407.28
2023-04-08T02:07:54.848Z,101411.38
2023-04-08T02:10:25.396Z,101411.69
2023-04-08T02:12:56.505Z,101414.63
2023-04-08T02:15:54.399Z,101416.28
2023-04-08T02:21:21.753Z,101410.22
2023-04-08T02:23:53.781Z,101416.78
2023-04-08T02:26:45.738Z,101407.16
2023-04-08T02:29:18.603Z,101420.03
2023-04-08T02:31:50.989Z,101418.06
2023-04-08T02:34:25.046Z,101418.06
2023-04-08T02:36:55.622Z,101415.81
2023-04-08T02:39:34.406Z,101412.25
2023-04-08T02:42:23.228Z,101403.94
2023-04-08T02:44:56.438Z,101414.69
2023-04-08T02:47:26.548Z,101403.59
2023-04-08T02:49:57.661Z,101407.72
2023-04-08T02:52:28.015Z,101400.53
2023-04-08T02:54:58.527Z,101395.00
2023-04-08T02:57:29.169Z,101391.09
2023-04-08T02:59:59.609Z,101397.09
2023-04-08T03:02:29.913Z,101393.53
2023-04-08T03:05:18.870Z,101391.56
2023-04-08T03:08:09.187Z,101376.59
2023-04-08T03:10:39.639Z,101382.63
2023-04-08T03:13:09.929Z,101387.84
2023-04-08T03:15:40.321Z,101389.50
2023-04-08T03:18:10.722Z,101391.09
2023-04-08T03:20:41.035Z,101386.41
2023-04-08T03:23:11.445Z,101380.84
2023-04-08T03:25:41.702Z,101374.19
2023-04-08T03:28:12.042Z,101374.97
2023-04-08T03:30:42.256Z,101378.59
2023-04-08T03:33:12.479Z,101373.84
2023-04-08T03:35:42.919Z,101376.31
2023-04-08T03:38:14.565Z,101365.25
2023-04-08T03:40:44.833Z,101366.03
2023-04-08T03:43:16.308Z,101364.41
2023-04-08T03:45:46.884Z,101366.88
2023-04-08T03:48:17.297Z,101364.09
2023-04-08T03:50:47.606Z,101356.25
2023-04-08T03:53:19.059Z,101359.88
2023-04-08T03:55:51.329Z,101350.72
2023-04-08T03:58:21.811Z,101357.91
2023-04-08T04:00:52.128Z,101348.94
2023-04-08T04:03:23.150Z,101341.78
2023-04-08T04:05:53.831Z,101346.69
2023-04-08T04:08:24.155Z,101337.72
2023-04-08T04:10:54.448Z,101327.44
2023-04-08T04:13:24.957Z,101322.75
2023-04-08T04:15:55.364Z,101329.91
2023-04-08T04:18:25.786Z,101324.38
2023-04-08T04:20:56.201Z,101323.72
2023-04-08T04:23:28.219Z,101316.56
2023-04-08T04:25:58.546Z,101312.97
2023-04-08T04:28:28.806Z,101310.69
2023-04-08T04:30:58.990Z,101308.56
2023-04-08T04:33:29.656Z,101300.75
2023-04-08T04:36:00.041Z,101290.94
2023-04-08T04:38:30.575Z,101288.53
2023-04-08T04:41:01.449Z,101283.78
2023-04-08T04:43:31.761Z,101286.56
2023-04-08T04:46:02.205Z,101285.41
2023-04-08T04:48:32.506Z,101283.78
2023-04-08T04:51:05.703Z,101273.19
2023-04-08T04:53:36.137Z,101268.50
2023-04-08T04:56:06.568Z,101265.75
2023-04-08T04:58:36.737Z,101262.63
2023-04-08T05:01:06.873Z,101254.31
2023-04-08T05:03:37.158Z,101252.69
2023-04-08T05:06:07.924Z,101254.19
2023-04-08T05:08:38.307Z,101241.63
2023-04-08T05:11:12.773Z,101235.44
2023-04-08T05:13:43.084Z,101233.00
2023-04-08T05:16:13.640Z,101224.00
2023-04-08T05:18:43.909Z,101227.59
2023-04-08T05:21:14.309Z,101225.97
2023-04-08T05:23:44.599Z,101209.34
2023-04-08T05:26:16.293Z,101219.59
2023-04-08T05:28:46.904Z,101212.91
2023-04-08T05:31:22.888Z,101207.88
2023-04-08T05:33:53.274Z,101202.66
2023-04-08T05:36:23.565Z,101201.38
2023-04-08T05:38:53.870Z,101201.38
2023-04-08T05:41:24.274Z,101195.97
2023-04-08T05:43:54.527Z,101188.97
2023-04-08T05:46:24.868Z,101168.28
2023-04-08T05:48:55.099Z,101177.38
2023-04-08T05:51:25.292Z,101166.31
2023-04-08T05:53:55.614Z,101164.03
2023-04-08T05:56:25.838Z,101162.38
2023-04-08T05:58:56.178Z,101164.66
2023-04-08T06:01:26.544Z,101153.25
2023-04-08T06:03:58.764Z,101147.88
2023-04-08T06:06:29.314Z,101141.66
2023-04-08T06:08:59.518Z,101143.78
2023-04-08T06:11:29.617Z,101121.59
2023-04-08T06:13:59.811Z,101116.06
2023-04-08T06:16:30.012Z,101111.81
2023-04-08T06:19:00.433Z,101109.53
2023-04-08T06:21:30.970Z,101098.22
2023-04-08T06:24:01.380Z,101106.22
2023-04-08T06:26:31.692Z,101091.38
2023-04-08T06:29:02.009Z,101090.56
2023-04-08T06:31:32.415Z,101089.09
2023-04-08T06:34:02.821Z,101080.13
2023-04-08T06:36:33.063Z,101086.16
2023-04-08T06:39:03.433Z,101084.84
2023-04-08T06:41:33.980Z,101071.00
2023-04-08T06:44:20.434Z,101072.63
2023-04-08T06:46:50.744Z,101073.44
2023-04-08T06:49:21.038Z,101062.34
2023-04-08T06:51:51.499Z,101058.59
2023-04-08T06:54:21.646Z,101061.66
2023-04-08T06:56:51.848Z,101058.09
2023-04-08T06:59:22.069Z,101054.19
2023-04-08T07:01:53.050Z,101048.81
2023-04-08T07:04:23.391Z,101056.31
2023-04-08T07:06:54.052Z,101045.03
2023-04-08T07:09:24.233Z,101043.41
2023-04-08T07:11:54.644Z,101035.56
2023-04-08T07:14:24.897Z,101038.81
2023-04-08T07:16:55.364Z,101030.84
2023-04-08T07:19:26.709Z,101031.63
2023-04-08T07:21:57.274Z,101027.25
2023-04-08T07:24:27.843Z,101013.38
2023-04-08T07:26:59.262Z,101019.75
2023-04-08T07:29:30.395Z,101014.00
2023-04-08T07:32:00.648Z,101007.16
2023-04-08T07:34:31.037Z,101004.88
2023-04-08T07:37:01.275Z,101000.28
2023-04-08T07:39:31.801Z,101000.59
2023-04-08T07:42:02.031Z,100994.75
2023-04-08T07:44:33.549Z,100976.13
2023-04-08T07:47:04.108Z,100969.44
2023-04-08T07:49:34.529Z,100956.03
2023-04-08T07:52:04.812Z,100954.06
2023-04-08T07:54:38.604Z,100945.91
2023-04-08T07:57:09.007Z,100949.16
2023-04-08T07:59:39.413Z,100938.06
2023-04-08T08:02:09.811Z,100931.81
2023-04-08T08:04:40.292Z,100938.06
2023-04-08T08:07:10.750Z,100936.09
2023-04-08T08:09:40.931Z,100929.88
2023-04-08T08:12:11.157Z,100938.31
2023-04-08T08:14:41.629Z,100930.81
2023-04-08T08:17:11.893Z,100921.34
2023-04-08T08:19:42.000Z,100920.88
2023-04-08T08:22:14.121Z,100911.06
2023-04-08T08:24:45.301Z,100910.69
2023-04-08T08:27:15.237Z,100900.44
2023-04-08T08:29:45.341Z,100906.09
2023-04-08T08:32:16.150Z,100898.13
2023-04-08T08:34:46.405Z,100886.69
2023-04-08T08:37:16.584Z,100893.06
2023-04-08T08:39:46.862Z,100901.03
2023-04-08T08:42:27.101Z,100902.19
2023-04-08T08:44:57.845Z,100890.28
2023-04-08T08:47:28.242Z,100886.22
2023-04-08T08:49:58.725Z,100870.88
2023-04-08T08:52:29.025Z,100868.88
2023-04-08T08:55:16.745Z,100857.00
2023-04-08T08:57:54.712Z,100858.63
2023-04-08T09:00:41.060Z,100858.63
2023-04-08T09:03:30.443Z,100851.09
2023-04-08T09:06:02.660Z,100854.66
2023-04-08T09:08:37.961Z,100859.88
2023-04-08T09:11:16.032Z,100853.88
2023-04-08T09:13:48.087Z,100854.66
2023-04-08T09:16:22.641Z,100852.25
2023-04-08T09:18:53.446Z,100859.41
2023-04-08T09:21:27.530Z,100863.00
2023-04-08T09:23:57.924Z,100869.38
2023-04-08T09:26:29.320Z,100876.06
2023-04-08T09:29:18.155Z,100886.81
2023-04-08T09:32:03.037Z,100882.75
2023-04-08T09:34:34.806Z,100879.63
2023-04-08T09:37:05.179Z,100888.31
2023-04-08T09:39:35.604Z,100908.88
2023-04-08T09:42:09.344Z,100917.19
2023-04-08T09:44:42.337Z,100923.91
2023-04-08T09:47:22.621Z,100927.50
2023-04-08T09:49:58.540Z,100927.34
2023-04-08T09:52:46.921Z,100932.22
2023-04-08T09:55:20.318Z,100935.66
2023-04-08T09:58:02.328Z,100941.22
2023-04-08T10:00:41.270Z,100940.78
2023-04-08T10:03:30.337Z,100934.53
2023-04-08T10:06:03.842Z,100926.91
2023-04-08T10:08:35.513Z,100929.69
2023-04-08T10:11:06.132Z,100923.66
2023-04-08T10:13:37.274Z,100930.34
2023-04-08T10:16:25.339Z,100935.06
2023-04-08T10:18:59.578Z,100940.97
2023-04-08T10:21:40.558Z,100946.84
2023-04-08T10:24:12.863Z,100942.78
2023-04-08T10:26:47.769Z,100951.09
2023-04-08T10:29:20.850Z,100947.19
2023-04-08T10:31:53.139Z,100945.91
2023-04-08T10:34:27.223Z,100955.84
2023-04-08T10:37:01.263Z,100953.09
2023-04-08T10:39:31.772Z,100957.81
2023-04-08T10:42:05.049Z,100956.19
2023-04-08T10:44:36.366Z,100958.94
2023-04-08T10:47:06.295Z,100962.06
2023-04-08T10:49:37.976Z,100972.34
2023-04-08T10:52:11.922Z,100962.56
2023-04-08T10:54:50.867Z,100962.56
2023-04-08T10:57:28.327Z,100969.56
2023-04-08T10:59:59.766Z,100972.34
2023-04-08T11:02:36.687Z,100951.66
2023-04-08T11:05:07.293Z,100942.97
2023-04-08T11:07:44.092Z,100946.09
2023-04-08T11:10:14.708Z,100956.03
2023-04-08T11:12:45.914Z,100958.69
2023-04-08T11:15:17.313Z,100966.19
2023-04-08T11:17:47.803Z,100976.47
2023-04-08T11:20:18.685Z,100980.03
2023-04-08T11:22:50.373Z,100969.31
2023-04-08T11:25:20.947Z,100970.44
2023-04-08T11:27:52.676Z,100961.66
2023-04-08T11:30:24.243Z,100958.88
2023-04-08T11:32:54.983Z,100944.88
2023-04-08T11:35:25.528Z,100941.75
2023-04-08T11:37:56.933Z,100944.88
2023-04-08T11:40:27.432Z,100943.25
2023-04-08T11:42:58.144Z,100946.34
2023-04-08T11:45:28.557Z,100945.91
2023-04-08T11:47:59.150Z,100944.59
2023-04-08T11:50:32.377Z,100951.09
2023-04-08T11:53:02.852Z,100957.31
2023-04-08T11:55:35.244Z,100954.53
2023-04-08T11:58:08.525Z,100954.53
2023-04-08T12:00:39.882Z,100974.28
2023-04-08T12:03:11.131Z,100988.44
2023-04-08T12:05:42.458Z,100992.22
2023-04-08T12:08:12.518Z,101017.00
2023-04-08T12:10:43.456Z,101033.50
2023-04-08T12:13:13.779Z,101052.06
2023-04-08T12:15:44.643Z,101058.28
2023-04-08T12:18:15.161Z,101067.78
2023-04-08T12:20:45.516Z,101079.03
2023-04-08T12:23:15.806Z,101089.94
2023-04-08T12:25:46.533Z,101095.69
2023-04-08T12:28:16.980Z,101095.19
2023-04-08T12:30:47.288Z,101108.22
2023-04-08T12:33:18.110Z,101118.31
2023-04-08T12:35:48.521Z,101126.16
2023-04-08T12:38:18.950Z,101126.16
2023-04-08T12:40:50.275Z,101128.59
2023-04-08T12:43:20.771Z,101120.75
2023-04-08T12:45:51.829Z,101124.69
2023-04-08T12:48:22.692Z,101137.13
2023-04-08T12:50:52.975Z,101143.94
2023-04-08T12:56:06.809Z,101154.03
2023-04-08T12:58:37.297Z,101164.00
2023-04-08T13:01:08.715Z,101170.69
2023-04-08T13:03:39.239Z,101167.09
2023-04-08T13:06:09.797Z,101167.56
2023-04-08T13:08:40.150Z,101176.56
2023-04-08T13:11:13.466Z,101185.81
2023-04-08T13:13:43.981Z,101192.69
2023-04-08T13:16:14.379Z,101195.97
2023-04-08T13:18:45.083Z,101205.41
2023-04-08T13:21:15.406Z,101210.47
2023-04-08T13:23:45.590Z,101220.41
2023-04-08T13:26:16.630Z,101220.91
2023-04-08T13:28:56.542Z,101224.31
2023-04-08T13:31:28.384Z,101227.09
2023-04-08T13:33:58.871Z,101232.78
2023-04-08T13:36:30.893Z,101231.16
2023-04-08T13:39:01.639Z,101238.47
2023-04-08T13:41:32.572Z,101235.22
2023-04-08T13:44:03.218Z,101233.44
2023-04-08T13:46:33.679Z,101233.28
2023-04-08T13:49:06.142Z,101233.63
2023-04-08T13:51:36.422Z,101237.19
2023-04-08T13:54:07.063Z,101235.06
2023-04-08T13:56:37.265Z,101232.78
2023-04-08T13:59:07.958Z,101229.03
2023-04-08T14:01:38.400Z,101228.22
2023-04-08T14:04:09.657Z,101225.59
2023-04-08T14:06:40.086Z,101240.31
2023-04-08T14:09:10.373Z,101248.94
2023-04-08T14:11:40.690Z,101255.13
2023-04-08T14:14:10.949Z,101257.91
2023-04-08T14:16:41.480Z,101269.97
2023-04-08T14:19:12.296Z,101271.09
2023-04-08T14:21:42.870Z,101269.66
2023-04-08T14:24:13.860Z,101280.75
2023-04-08T14:26:44.709Z,101286.28
2023-04-08T14:29:15.639Z,101282.03
2023-04-08T14:31:45.770Z,101286.59
2023-04-08T14:34:15.964Z,101284.84
2023-04-08T14:36:47.868Z,101284.81
2023-04-08T15:31:08.367Z,101383.50
2023-04-08T15:33:43.663Z,101387.91
2023-04-08T15:36:14.485Z,101387.31
2023-04-08T15:38:44.845Z,101384.41
2023-04-08T15:41:22.201Z,101385.69
2023-04-08T15:43:52.657Z,101380.31
2023-04-08T15:46:24.008Z,101374.13
2023-04-08T15:48:54.518Z,101377.91
2023-04-08T15:51:25.388Z,101376.75
2023-04-08T15:53:55.899Z,101360.13
2023-04-08T15:56:26.248Z,101352.81
2023-04-08T15:58:56.718Z,101354.44
2023-04-08T16:01:27.517Z,101347.75
2023-04-08T16:03:58.472Z,101351.00
2023-04-08T16:06:30.613Z,101351.00
2023-04-08T16:09:01.269Z,101353.78
2023-04-08T16:11:32.184Z,101339.91
2023-04-08T16:14:03.076Z,101332.44
2023-04-08T16:16:34.608Z,101326.06
2023-04-08T16:19:05.078Z,101323.28
2023-04-08T16:21:35.505Z,101314.50
2023-04-08T16:24:07.702Z,101321.34
2023-04-08T16:26:38.113Z,101313.03
2023-04-08T16:29:08.785Z,101316.28
2023-04-08T16:31:40.209Z,101301.59
2023-04-08T16:34:10.963Z,101299.47
2023-04-08T16:36:41.527Z,101292.31
2023-04-08T16:39:11.963Z,101298.53
2023-04-08T16:41:42.717Z,101304.72
2023-04-08T16:44:13.063Z,101304.22
2023-04-08T16:46:43.536Z,101296.22
2023-04-08T16:49:15.580Z,101293.97
2023-04-08T16:51:47.222Z,101280.75
2023-04-08T16:54:17.373Z,101275.69
2023-04-08T16:56:48.832Z,101270.47
2023-04-08T16:59:19.022Z,101273.06
2023-04-08T17:01:49.386Z,101274.22
2023-04-08T17:04:19.642Z,101281.25
2023-04-08T17:06:51.083Z,101279.59
2023-04-08T17:09:20.962Z,101274.06
2023-04-08T17:11:51.665Z,101260.50
2023-04-08T17:14:21.948Z,101253.69
2023-04-08T17:16:52.470Z,101247.34
2023-04-08T17:19:24.136Z,101243.25
2023-04-08T17:21:54.627Z,101242.72
2023-04-08T17:24:25.032Z,101245.00
2023-04-08T17:26:55.438Z,101243.84
2023-04-08T17:29:25.971Z,101245.00
2023-04-08T17:31:56.782Z,101244.19
2023-04-08T17:34:27.405Z,101251.22
2023-04-08T17:36:57.770Z,101250.38
2023-04-08T17:39:28.203Z,101245.66
2023-04-08T17:41:59.856Z,101247.13
2023-04-08T17:44:32.183Z,101236.03
2023-04-08T17:47:03.079Z,101233.75
2023-04-08T17:49:33.743Z,101232.13
2023-04-08T17:52:04.297Z,101222.69
2023-04-08T17:54:36.886Z,101212.75
2023-04-08T17:57:07.233Z,101214.38
2023-04-08T17:59:37.876Z,101230.00
2023-04-08T18:02:08.483Z,101214.56
2023-04-08T18:04:38.854Z,101209.00
2023-04-08T18:07:09.102Z,101199.06
2023-04-08T18:09:39.545Z,101200.69
2023-04-08T18:12:09.876Z,101198.72
2023-04-08T18:14:40.411Z,101193.03
2023-04-08T18:17:10.977Z,101200.50
2023-04-08T18:19:41.150Z,101205.56
2023-04-08T18:22:11.305Z,101200.03
2023-04-08T18:24:43.008Z,101195.16
2023-04-08T18:27:13.700Z,101188.78
2023-04-08T18:29:44.455Z,101186.34
2023-04-08T18:32:15.413Z,101175.59
2023-04-08T18:34:45.790Z,101178.34
2023-04-08T18:37:19.200Z,101167.63
2023-04-08T18:39:50.863Z,101167.13
2023-04-08T18:42:21.429Z,101166.78
2023-04-08T18:44:51.729Z,101161.59
2023-04-08T18:47:22.515Z,101168.59
2023-04-08T18:49:52.896Z,101167.75
2023-04-08T18:52:23.272Z,101165.81
2023-04-08T18:54:54.036Z,101164.19
2023-04-08T18:57:24.542Z,101150.00
2023-04-08T18:59:54.988Z,101148.06
2023-04-08T19:02:25.438Z,101146.44
2023-04-08T19:04:57.535Z,101149.22
2023-04-08T19:07:27.890Z,101138.94
2023-04-08T19:10:01.621Z,101137.66
2023-04-08T19:12:31.940Z,101138.44
2023-04-08T19:15:02.366Z,101138.44
2023-04-08T19:17:32.982Z,101136.81
2023-04-08T19:20:04.158Z,101132.91
2023-04-08T19:22:34.523Z,101130.47
2023-04-08T19:25:04.953Z,101148.72
2023-04-08T19:27:35.519Z,101143.47
2023-04-08T19:30:05.964Z,101130.81
2023-04-08T19:32:39.414Z,101127.22
2023-04-08T19:35:10.474Z,101130.31
2023-04-08T19:37:41.041Z,101133.56
2023-04-08T19:40:12.138Z,101130.31
2023-04-08T19:42:42.376Z,101126.41
2023-04-08T19:45:13.307Z,101129.97
2023-04-08T19:47:47.233Z,101125.91
2023-04-08T19:50:17.569Z,101124.28
2023-04-08T19:52:47.889Z,101132.59
2023-04-08T19:55:18.629Z,101133.72
2023-04-08T19:57:48.905Z,101138.44
2023-04-08T20:00:19.181Z,101132.09
2023-04-08T20:02:49.566Z,101130.97
2023-04-08T20:05:20.118Z,101130.97
2023-04-08T20:07:50.771Z,101130.13
2023-04-08T20:10:21.191Z,101128.50
2023-04-08T20:12:51.675Z,101128.84
2023-04-08T20:15:25.156Z,101120.53
2023-04-08T20:17:56.676Z,101120.38
2023-04-08T20:20:29.890Z,101126.72
2023-04-08T20:23:00.666Z,101124.78
2023-04-08T20:25:31.277Z,101126.22
2023-04-08T20:28:01.703Z,101127.34
2023-04-08T20:30:31.979Z,101135.19
2023-04-08T20:33:02.521Z,101136.81
2023-04-08T20:35:33.037Z,101129.66
2023-04-08T20:38:03.475Z,101136.34
2023-04-08T20:40:33.948Z,101137.47
2023-04-08T20:43:04.944Z,101134.69
2023-04-08T20:45:35.234Z,101145.44
2023-04-08T20:48:05.732Z,101154.06
2023-04-08T20:50:36.203Z,101149.34
2023-04-08T20:53:06.602Z,101151.63
2023-04-08T20:55:37.286Z,101149.69
2023-04-08T20:58:09.942Z,101161.88
2023-04-08T21:00:40.298Z,101161.38
2023-04-08T21:03:10.649Z,101163.78
2023-04-08T21:05:41.306Z,101157.97
2023-04-08T21:08:12.053Z,101159.13
2023-04-08T21:10:42.333Z,101146.38
2023-04-08T21:13:12.755Z,101154.69
2023-04-08T21:15:42.975Z,101156.63
2023-04-08T21:18:13.670Z,101163.00
2023-04-08T21:20:43.904Z,101161.03
2023-04-08T21:23:15.372Z,101172.44
2023-04-08T21:25:45.868Z,101164.94
2023-04-08T21:28:16.552Z,101160.56
2023-04-08T21:30:46.886Z,101170.00
2023-04-08T21:33:17.925Z,101164.28
2023-04-08T21:35:48.607Z,101172.56
2023-04-08T21:38:18.766Z,101171.28
2023-04-08T21:40:48.996Z,101168.84
2023-04-08T21:43:19.338Z,101169.97
2023-04-08T21:45:49.743Z,101176.16
2023-04-08T21:48:20.105Z,101179.22
2023-04-08T21:50:51.408Z,101186.41
2023-04-08T21:53:23.074Z,101184.28
2023-04-08T21:55:53.591Z,101179.91
2023-04-08T21:58:24.051Z,101184.59
2023-04-08T22:00:55.496Z,101181.84
2023-04-08T22:03:25.799Z,101181.84
2023-04-08T22:05:56.593Z,101183.81
2023-04-08T22:08:26.809Z,101181.34
2023-04-08T22:10:57.148Z,101186.88
2023-04-08T22:13:27.488Z,101192.41
2023-04-08T22:15:57.777Z,101197.94
2023-04-08T22:18:28.228Z,101193.06
2023-04-08T22:20:58.566Z,101187.53
2023-04-08T22:23:28.847Z,101185.56
2023-04-08T22:25:59.120Z,101197.78
2023-04-08T22:28:29.527Z,101203.63
2023-04-08T22:30:59.900Z,101209.81
2023-04-08T22:33:33.019Z,101205.91
2023-04-08T22:36:03.646Z,101198.41
2023-04-08T22:38:34.555Z,101200.38
2023-04-08T22:41:04.910Z,101201.50
2023-04-08T22:43:35.343Z,101214.19
2023-04-08T22:46:05.641Z,101214.84
2023-04-08T22:48:36.011Z,101223.63
2023-04-08T22:51:06.571Z,101226.91
2023-04-08T22:53:37.330Z,101226.91
2023-04-08T22:56:08.070Z,101215.84
2023-04-08T22:58:38.674Z,101231.94
2023-04-08T23:01:20.194Z,101232.75
2023-04-08T23:03:50.932Z,101230.81
2023-04-08T23:06:21.383Z,101237.47
2023-04-08T23:08:51.916Z,101241.38
2023-04-08T23:11:22.365Z,101255.22
2023-04-08T23:13:52.748Z,101255.84
2023-04-08T23:16:23.951Z,101260.25
2023-04-08T23:18:54.606Z,101269.38
2023-04-08T23:21:26.014Z,101264.63
2023-04-08T23:23:56.432Z,101270.75
2023-04-08T23:26:27.725Z,101276.56
2023-04-08T23:28:58.360Z,101275.94
2023-04-08T23:31:28.762Z,101289.19
2023-04-08T23:33:59.107Z,101291.44
2023-04-08T23:36:31.228Z,101294.03
2023-04-08T23:39:01.985Z,101293.81
2023-04-08T23:41:32.353Z,101293.34
2023-04-08T23:44:02.714Z,101286.19
2023-04-08T23:46:33.155Z,101297.25
2023-04-08T23:49:03.492Z,101302.56
2023-04-08T23:51:33.873Z,101300.13
2023-04-08T23:54:04.759Z,101302.50
2023-04-08T23:56:35.149Z,101299.44
2023-04-08T23:59:05.408Z,101309.38
